createdAt,value
2022-08-03T00:00:29.490Z,3.63
2022-08-03T00:02:57.004Z,3.20
2022-08-03T00:05:24.515Z,3.10
2022-08-03T00:07:52.011Z,3.27
2022-08-03T00:10:20.472Z,3.40
2022-08-03T00:12:49.325Z,3.30
2022-08-03T00:15:17.186Z,3.40
2022-08-03T00:17:52.588Z,3.50
2022-08-03T00:20:21.610Z,3.30
2022-08-03T00:22:49.190Z,3.70
2022-08-03T00:25:16.756Z,3.47
2022-08-03T00:27:44.239Z,3.20
2022-08-03T00:30:13.289Z,3.50
2022-08-03T00:32:44.234Z,3.13
2022-08-03T00:35:32.484Z,3.40
2022-08-03T00:38:00.415Z,3.77
2022-08-03T00:40:28.187Z,3.30
2022-08-03T00:42:57.063Z,3.30
2022-08-03T00:45:27.349Z,3.40
2022-08-03T00:47:55.186Z,3.30
2022-08-03T00:50:23.904Z,3.67
2022-08-03T00:52:52.741Z,3.10
2022-08-03T00:55:20.409Z,3.60
2022-08-03T00:57:48.640Z,3.20
2022-08-03T01:00:17.010Z,3.63
2022-08-03T01:02:46.205Z,3.40
2022-08-03T01:05:13.982Z,3.60
2022-08-03T01:07:43.969Z,3.37
2022-08-03T01:10:14.836Z,3.30
2022-08-03T01:12:44.725Z,3.30
2022-08-03T01:15:16.631Z,3.50
2022-08-03T01:17:50.993Z,3.30
2022-08-03T01:20:19.471Z,3.37
2022-08-03T01:22:58.134Z,3.10
2022-08-03T01:25:30.099Z,2.80
2022-08-03T01:28:04.037Z,3.47
2022-08-03T01:30:34.460Z,3.00
2022-08-03T01:33:04.846Z,3.30
2022-08-03T01:35:38.326Z,3.50
2022-08-03T01:38:08.166Z,3.20
2022-08-03T01:40:37.634Z,3.00
2022-08-03T01:43:05.601Z,3.00
2022-08-03T01:45:35.318Z,3.40
2022-08-03T01:48:03.570Z,3.27
2022-08-03T01:50:31.873Z,3.33
2022-08-03T01:52:59.890Z,2.87
2022-08-03T01:55:28.399Z,3.30
2022-08-03T01:58:06.040Z,3.53
2022-08-03T02:00:36.453Z,3.70
2022-08-03T02:03:05.860Z,3.20
2022-08-03T02:05:33.819Z,3.30
2022-08-03T02:08:01.763Z,3.90
2022-08-03T02:10:34.660Z,3.17
2022-08-03T02:13:04.021Z,3.37
2022-08-03T02:15:32.554Z,3.27
2022-08-03T02:18:02.888Z,3.20
2022-08-03T02:20:33.023Z,3.70
2022-08-03T02:23:00.774Z,3.50
2022-08-03T02:25:28.627Z,3.07
2022-08-03T02:27:57.465Z,3.50
2022-08-03T02:30:27.576Z,3.57
2022-08-03T02:32:56.360Z,3.47
2022-08-03T02:35:26.339Z,3.73
2022-08-03T02:37:57.152Z,3.20
2022-08-03T02:40:25.159Z,3.20
2022-08-03T02:42:54.454Z,2.97
2022-08-03T02:45:22.372Z,3.47
2022-08-03T02:47:53.565Z,3.07
2022-08-03T02:50:24.166Z,3.40
2022-08-03T02:52:53.964Z,2.87
2022-08-03T02:55:23.447Z,3.13
2022-08-03T02:57:51.202Z,3.17
2022-08-03T03:00:27.687Z,3.13
2022-08-03T03:02:57.571Z,3.57
2022-08-03T03:05:55.791Z,3.10
2022-08-03T03:08:18.004Z,3.50
2022-08-03T03:10:46.732Z,3.30
2022-08-03T03:13:14.933Z,3.50
2022-08-03T03:15:42.914Z,3.63
2022-08-03T03:18:11.276Z,3.33
2022-08-03T03:20:40.875Z,3.30
2022-08-03T03:23:09.681Z,3.20
2022-08-03T03:25:39.261Z,3.40
2022-08-03T03:28:06.770Z,3.30
2022-08-03T03:30:34.329Z,3.63
2022-08-03T03:33:02.759Z,3.20
2022-08-03T03:35:30.404Z,3.27
2022-08-03T03:37:58.371Z,3.47
2022-08-03T03:40:25.892Z,2.97
2022-08-03T03:42:54.787Z,3.30
2022-08-03T03:45:22.785Z,3.50
2022-08-03T03:47:50.389Z,3.20
2022-08-03T03:50:18.881Z,3.53
2022-08-03T03:52:46.346Z,3.20
2022-08-03T03:55:16.540Z,3.93
2022-08-03T03:57:44.011Z,3.20
2022-08-03T04:00:13.942Z,3.57
2022-08-03T04:02:41.473Z,3.50
2022-08-03T04:05:35.560Z,3.23
2022-08-03T04:08:26.383Z,3.43
2022-08-03T04:11:00.173Z,3.20
2022-08-03T04:13:30.956Z,3.50
2022-08-03T04:16:00.574Z,3.20
2022-08-03T04:18:29.745Z,3.23
2022-08-03T04:20:59.003Z,3.37
2022-08-03T04:23:28.946Z,3.43
2022-08-03T04:25:57.114Z,3.50
2022-08-03T04:28:30.995Z,3.30
2022-08-03T04:31:02.019Z,3.00
2022-08-03T04:33:30.760Z,3.00
2022-08-03T04:36:02.909Z,3.07
2022-08-03T04:38:31.634Z,3.17
2022-08-03T04:41:00.331Z,3.30
2022-08-03T04:43:28.654Z,3.60
2022-08-03T04:45:56.914Z,3.53
2022-08-03T04:48:25.958Z,3.60
2022-08-03T04:50:54.488Z,3.30
2022-08-03T04:53:22.511Z,3.17
2022-08-03T04:55:50.785Z,3.80
2022-08-03T04:58:18.290Z,3.50
2022-08-03T05:00:45.854Z,3.50
2022-08-03T05:03:20.445Z,3.57
2022-08-03T05:06:09.831Z,3.20
2022-08-03T05:08:46.244Z,3.50
2022-08-03T05:11:14.519Z,3.33
2022-08-03T05:13:41.960Z,3.53
2022-08-03T05:16:09.437Z,3.23
2022-08-03T05:18:36.913Z,3.57
2022-08-03T05:21:05.939Z,3.20
2022-08-03T05:23:33.436Z,3.23
2022-08-03T05:26:00.927Z,3.23
2022-08-03T05:28:28.588Z,3.23
2022-08-03T05:30:56.110Z,3.17
2022-08-03T05:33:23.623Z,3.33
2022-08-03T05:35:57.702Z,3.50
2022-08-03T05:38:34.752Z,3.20
2022-08-03T05:41:21.960Z,3.30
2022-08-03T05:43:50.967Z,3.50
2022-08-03T05:46:18.433Z,3.50
2022-08-03T05:48:45.930Z,3.13
2022-08-03T05:51:13.603Z,3.10
2022-08-03T05:53:42.726Z,3.53
2022-08-03T05:56:14.261Z,3.27
2022-08-03T05:58:43.317Z,4.00
2022-08-03T06:01:10.852Z,3.30
2022-08-03T06:03:38.332Z,3.40
2022-08-03T06:06:05.910Z,3.17
2022-08-03T06:08:33.364Z,3.30
2022-08-03T06:11:02.243Z,3.77
2022-08-03T06:13:29.736Z,3.73
2022-08-03T06:15:57.237Z,3.40
2022-08-03T06:18:25.053Z,3.33
2022-08-03T06:20:52.762Z,3.30
2022-08-03T06:23:20.304Z,3.40
2022-08-03T06:25:48.024Z,3.70
2022-08-03T06:28:51.136Z,3.63
2022-08-03T06:31:06.508Z,3.50
2022-08-03T06:34:31.539Z,3.47
2022-08-03T06:36:21.755Z,2.97
2022-08-03T06:38:49.234Z,3.47
2022-08-03T06:41:16.827Z,3.17
2022-08-03T06:44:03.216Z,3.47
2022-08-03T06:46:31.590Z,3.37
2022-08-03T06:48:59.123Z,3.67
2022-08-03T06:52:04.356Z,3.50
2022-08-03T06:54:14.088Z,3.50
2022-08-03T06:56:41.546Z,3.43
2022-08-03T06:59:10.304Z,3.40
2022-08-03T07:01:57.947Z,3.53
2022-08-03T07:04:25.473Z,3.60
2022-08-03T07:06:52.944Z,3.20
2022-08-03T07:09:20.468Z,3.30
2022-08-03T07:11:47.957Z,3.20
2022-08-03T07:14:16.977Z,3.43
2022-08-03T07:16:44.845Z,3.07
2022-08-03T07:19:12.304Z,3.10
2022-08-03T07:21:39.802Z,2.93
2022-08-03T07:24:07.682Z,2.90
2022-08-03T07:26:35.168Z,3.00
2022-08-03T07:29:02.642Z,3.03
2022-08-03T07:31:34.396Z,3.30
2022-08-03T07:34:02.086Z,3.23
2022-08-03T07:36:29.631Z,3.47
2022-08-03T07:38:58.195Z,3.03
2022-08-03T07:41:25.906Z,3.10
2022-08-03T07:43:53.499Z,3.17
2022-08-03T07:46:21.106Z,3.30
2022-08-03T07:48:50.322Z,2.93
2022-08-03T07:51:17.781Z,2.87
2022-08-03T07:53:47.438Z,3.07
2022-08-03T07:56:16.673Z,3.07
2022-08-03T07:58:44.241Z,3.43
2022-08-03T08:01:11.886Z,3.20
2022-08-03T08:03:52.968Z,3.20
2022-08-03T08:06:22.982Z,3.07
2022-08-03T08:08:50.643Z,3.00
2022-08-03T08:11:18.111Z,3.13
2022-08-03T08:13:45.683Z,2.97
2022-08-03T08:16:13.172Z,3.00
2022-08-03T08:18:40.691Z,2.97
2022-08-03T08:21:08.758Z,2.70
2022-08-03T08:23:43.440Z,2.80
2022-08-03T08:26:12.624Z,3.40
2022-08-03T08:28:40.090Z,3.13
2022-08-03T08:31:07.842Z,2.97
2022-08-03T08:34:03.065Z,3.10
2022-08-03T08:36:23.976Z,3.03
2022-08-03T08:38:52.887Z,2.63
2022-08-03T08:41:20.426Z,3.50
2022-08-03T08:43:47.956Z,3.27
2022-08-03T08:46:23.451Z,2.90
2022-08-03T08:48:52.068Z,2.70
2022-08-03T08:51:20.831Z,2.97
2022-08-03T08:53:49.315Z,2.80
2022-08-03T08:56:18.497Z,2.90
2022-08-03T08:58:48.290Z,2.90
2022-08-03T09:01:18.955Z,2.90
2022-08-03T09:03:46.594Z,3.00
2022-08-03T09:06:14.974Z,2.90
2022-08-03T09:08:42.419Z,2.67
2022-08-03T09:11:11.986Z,2.53
2022-08-03T09:13:41.063Z,2.60
2022-08-03T09:16:17.176Z,2.67
2022-08-03T09:18:45.479Z,2.50
2022-08-03T09:21:31.307Z,2.37
2022-08-03T09:24:03.769Z,2.27
2022-08-03T09:26:32.596Z,2.70
2022-08-03T09:29:06.951Z,2.40
2022-08-03T09:31:37.854Z,2.50
2022-08-03T09:34:06.210Z,2.57
2022-08-03T09:36:37.927Z,2.67
2022-08-03T09:39:06.499Z,2.77
2022-08-03T09:41:34.344Z,2.80
2022-08-03T09:44:03.160Z,2.40
2022-08-03T09:46:31.895Z,2.70
2022-08-03T09:49:12.586Z,2.60
2022-08-03T09:52:31.325Z,2.53
2022-08-03T09:54:28.405Z,2.63
2022-08-03T09:56:56.082Z,2.70
2022-08-03T09:59:28.497Z,2.40
2022-08-03T10:01:57.251Z,2.80
2022-08-03T10:04:25.216Z,2.60
2022-08-03T10:07:05.848Z,2.83
2022-08-03T10:09:33.556Z,2.80
2022-08-03T10:12:08.132Z,2.10
2022-08-03T10:14:38.007Z,2.63
2022-08-03T10:17:05.487Z,2.80
2022-08-03T10:19:34.166Z,2.80
2022-08-03T10:22:04.133Z,2.50
2022-08-03T10:24:33.295Z,2.57
2022-08-03T10:27:03.182Z,2.60
2022-08-03T10:29:31.330Z,2.70
2022-08-03T10:32:01.341Z,2.43
2022-08-03T10:34:30.328Z,2.57
2022-08-03T10:36:59.799Z,2.43
2022-08-03T10:39:29.608Z,2.10
2022-08-03T10:41:59.814Z,2.50
2022-08-03T10:44:33.649Z,3.53
2022-08-03T10:47:02.611Z,3.27
2022-08-03T10:49:34.314Z,3.30
2022-08-03T10:52:12.932Z,3.37
2022-08-03T10:55:09.971Z,3.40
2022-08-03T10:57:49.933Z,2.80
2022-08-03T11:00:17.951Z,2.80
2022-08-03T11:03:04.127Z,3.60
2022-08-03T11:05:33.528Z,3.00
2022-08-03T11:08:20.724Z,3.20
2022-08-03T11:10:48.228Z,3.10
2022-08-03T11:13:17.014Z,2.80
2022-08-03T11:15:45.453Z,3.00
2022-08-03T11:18:13.396Z,2.73
2022-08-03T11:20:49.078Z,2.50
2022-08-03T11:23:17.568Z,2.90
2022-08-03T11:26:03.848Z,2.70
2022-08-03T11:28:31.489Z,2.60
2022-08-03T11:31:48.557Z,2.73
2022-08-03T11:34:13.024Z,2.50
2022-08-03T11:36:55.438Z,2.80
2022-08-03T11:39:38.493Z,2.63
2022-08-03T11:42:20.826Z,2.50
2022-08-03T11:44:48.910Z,2.50
2022-08-03T11:47:18.036Z,2.30
2022-08-03T11:49:47.251Z,2.10
2022-08-03T11:52:14.812Z,2.70
2022-08-03T11:54:43.703Z,2.50
2022-08-03T11:57:11.261Z,2.70
2022-08-03T11:59:39.046Z,3.17
2022-08-03T12:02:09.748Z,3.00
2022-08-03T12:04:50.408Z,3.17
2022-08-03T12:08:02.198Z,2.73
2022-08-03T12:10:09.060Z,3.30
2022-08-03T12:12:36.579Z,2.83
2022-08-03T12:15:04.304Z,2.93
2022-08-03T12:17:34.085Z,2.90
2022-08-03T12:20:01.712Z,3.30
2022-08-03T12:22:32.888Z,3.70
2022-08-03T12:25:00.402Z,3.67
2022-08-03T12:27:30.045Z,3.50
2022-08-03T12:29:59.059Z,3.37
2022-08-03T12:32:27.423Z,3.77
2022-08-03T12:34:55.532Z,3.83
2022-08-03T12:37:23.876Z,3.30
2022-08-03T12:40:02.405Z,3.50
2022-08-03T12:42:35.592Z,3.57
2022-08-03T12:45:18.074Z,2.87
2022-08-03T12:47:52.568Z,3.07
2022-08-03T12:50:26.995Z,3.23
2022-08-03T12:52:54.479Z,3.00
2022-08-03T12:55:22.700Z,3.20
2022-08-03T12:57:51.614Z,3.00
2022-08-03T13:00:28.585Z,2.40
2022-08-03T13:03:38.937Z,2.40
2022-08-03T13:05:48.630Z,2.80
2022-08-03T13:08:19.508Z,2.67
2022-08-03T13:10:47.107Z,2.60
2022-08-03T13:13:16.580Z,2.50
2022-08-03T13:15:48.032Z,3.30
2022-08-03T13:18:17.359Z,2.90
2022-08-03T13:20:45.696Z,2.90
2022-08-03T13:23:22.053Z,3.10
2022-08-03T13:25:55.063Z,2.60
2022-08-03T13:28:24.159Z,2.90
2022-08-03T13:30:51.656Z,2.80
2022-08-03T13:33:19.227Z,3.33
2022-08-03T13:35:46.669Z,2.93
2022-08-03T13:38:15.322Z,3.20
2022-08-03T13:40:46.119Z,3.20
2022-08-03T13:43:16.901Z,3.47
2022-08-03T13:45:51.227Z,2.83
2022-08-03T13:48:37.128Z,2.97
2022-08-03T13:51:21.788Z,2.90
2022-08-03T13:53:50.537Z,2.40
2022-08-03T13:56:18.013Z,2.80
2022-08-03T13:58:45.611Z,2.63
2022-08-03T14:01:14.688Z,2.73
2022-08-03T14:03:42.236Z,3.30
2022-08-03T14:06:09.839Z,3.17
2022-08-03T14:08:37.384Z,2.87
2022-08-03T14:11:04.915Z,3.03
2022-08-03T14:13:32.508Z,3.00
2022-08-03T14:16:00.060Z,2.73
2022-08-03T14:18:33.950Z,2.63
2022-08-03T14:21:06.019Z,2.43
2022-08-03T14:23:34.069Z,2.53
2022-08-03T14:26:01.574Z,2.63
2022-08-03T14:28:29.001Z,2.63
2022-08-03T14:30:56.819Z,2.30
2022-08-03T14:33:24.649Z,2.57
2022-08-03T14:35:53.708Z,2.73
2022-08-03T14:38:21.555Z,2.50
2022-08-03T14:40:49.021Z,2.63
2022-08-03T14:43:18.145Z,2.53
2022-08-03T14:45:45.691Z,2.50
2022-08-03T14:50:32.031Z,3.00
2022-08-03T14:51:02.091Z,2.57
2022-08-03T14:53:30.112Z,2.33
2022-08-03T14:55:57.895Z,2.43
2022-08-03T14:58:26.703Z,2.80
2022-08-03T15:00:54.940Z,2.30
2022-08-03T15:03:24.802Z,2.40
2022-08-03T15:05:52.929Z,2.20
2022-08-03T15:08:22.260Z,2.30
2022-08-03T15:10:50.443Z,2.20
2022-08-03T15:13:18.113Z,2.50
2022-08-03T15:15:45.641Z,2.10
2022-08-03T15:18:13.172Z,2.20
2022-08-03T15:20:45.811Z,2.30
2022-08-03T15:23:14.216Z,2.50
2022-08-03T15:26:03.957Z,2.10
2022-08-03T15:28:30.931Z,2.30
2022-08-03T15:30:58.435Z,2.20
2022-08-03T15:33:25.995Z,1.90
2022-08-03T15:35:53.846Z,2.43
2022-08-03T15:38:22.910Z,2.20
2022-08-03T15:40:55.657Z,2.17
2022-08-03T15:43:23.323Z,2.33
2022-08-03T15:46:12.774Z,2.00
2022-08-03T15:48:38.428Z,2.27
2022-08-03T15:51:06.209Z,2.10
2022-08-03T15:53:34.370Z,2.03
2022-08-03T15:56:07.973Z,2.10
2022-08-03T15:59:09.202Z,2.33
2022-08-03T16:01:26.516Z,2.30
2022-08-03T16:03:54.100Z,2.00
2022-08-03T16:06:34.955Z,2.17
2022-08-03T16:09:04.044Z,2.60
2022-08-03T16:11:33.149Z,2.23
2022-08-03T16:14:12.487Z,1.77
2022-08-03T16:16:48.125Z,2.00
2022-08-03T16:19:15.839Z,2.07
2022-08-03T16:21:48.904Z,1.67
2022-08-03T16:24:25.869Z,2.30
2022-08-03T16:26:56.819Z,2.03
2022-08-03T16:29:24.411Z,2.10
2022-08-03T16:31:52.518Z,2.00
2022-08-03T16:34:20.290Z,2.00
2022-08-03T16:36:47.834Z,1.87
2022-08-03T16:39:15.429Z,1.90
2022-08-03T16:41:54.015Z,2.20
2022-08-03T16:44:30.650Z,2.37
2022-08-03T16:46:58.451Z,2.23
2022-08-03T16:49:55.087Z,2.30
2022-08-03T16:52:13.446Z,1.90
2022-08-03T16:54:40.954Z,2.13
2022-08-03T16:57:08.763Z,2.73
2022-08-03T16:59:37.584Z,2.57
2022-08-03T17:02:10.500Z,1.97
2022-08-03T17:04:40.349Z,2.10
2022-08-03T17:07:08.805Z,1.80
2022-08-03T17:09:38.381Z,1.90
2022-08-03T17:12:07.440Z,1.80
2022-08-03T17:14:40.048Z,2.23
2022-08-03T17:17:16.387Z,2.10
2022-08-03T17:19:47.235Z,2.20
2022-08-03T17:22:16.649Z,2.07
2022-08-03T17:24:46.120Z,2.00
2022-08-03T17:28:42.395Z,2.07
2022-08-03T17:30:08.475Z,2.00
2022-08-03T17:32:42.061Z,2.07
2022-08-03T17:35:11.068Z,2.17
2022-08-03T17:37:57.962Z,2.20
2022-08-03T17:40:26.170Z,2.10
2022-08-03T17:42:54.500Z,2.10
2022-08-03T17:45:23.508Z,2.00
2022-08-03T17:48:11.037Z,2.00
2022-08-03T17:50:50.611Z,2.47
2022-08-03T17:53:23.913Z,1.97
2022-08-03T17:56:04.788Z,2.30
2022-08-03T17:58:53.493Z,2.43
2022-08-03T18:02:00.617Z,2.03
2022-08-03T18:04:32.195Z,2.20
2022-08-03T18:07:11.097Z,1.80
2022-08-03T18:10:04.497Z,2.57
2022-08-03T18:12:29.716Z,2.83
2022-08-03T18:15:01.085Z,2.20
2022-08-03T18:17:55.621Z,3.90
2022-08-03T18:20:32.937Z,3.20
2022-08-03T18:23:06.492Z,2.27
2022-08-03T18:25:45.618Z,2.20
2022-08-03T18:28:18.677Z,2.93
2022-08-03T18:30:53.113Z,4.10
2022-08-03T18:34:18.463Z,3.43
2022-08-03T18:36:17.481Z,3.90
2022-08-03T18:38:46.494Z,3.10
2022-08-03T18:41:20.544Z,2.20
2022-08-03T18:44:08.945Z,2.90
2022-08-03T18:46:46.319Z,2.83
2022-08-03T18:49:19.804Z,2.73
2022-08-03T18:51:47.517Z,2.40
2022-08-03T18:54:46.601Z,2.43
2022-08-03T18:57:07.416Z,2.58
2022-08-03T18:59:41.289Z,2.30
2022-08-03T19:02:17.048Z,2.70
2022-08-03T19:04:48.426Z,2.50
2022-08-03T19:07:22.250Z,2.20
2022-08-03T19:09:54.356Z,2.10
2022-08-03T19:12:28.181Z,2.47
2022-08-03T19:15:03.132Z,2.20
2022-08-03T19:17:30.913Z,2.40
2022-08-03T19:20:01.657Z,3.77
2022-08-03T19:22:29.372Z,2.47
2022-08-03T19:25:00.630Z,2.40
2022-08-03T19:27:28.952Z,2.30
2022-08-03T19:29:59.782Z,2.50
2022-08-03T19:32:30.086Z,2.20
2022-08-03T19:34:59.443Z,2.40
2022-08-03T19:37:38.305Z,2.17
2022-08-03T19:40:10.307Z,2.20
2022-08-03T19:42:41.097Z,2.23
2022-08-03T19:45:11.081Z,2.30
2022-08-03T19:47:45.366Z,2.20
2022-08-03T19:50:14.348Z,2.57
2022-08-03T19:52:45.016Z,2.30
2022-08-03T19:55:12.826Z,2.20
2022-08-03T19:57:41.656Z,2.10
2022-08-03T20:00:12.502Z,2.30
2022-08-03T20:02:42.024Z,2.30
2022-08-03T20:05:15.510Z,2.33
2022-08-03T20:07:48.224Z,2.50
2022-08-03T20:10:16.555Z,2.10
2022-08-03T20:12:44.705Z,2.20
2022-08-03T20:15:12.625Z,2.23
2022-08-03T20:17:54.421Z,1.80
2022-08-03T20:20:29.534Z,2.10
2022-08-03T20:22:59.510Z,2.60
2022-08-03T20:25:38.643Z,2.43
2022-08-03T20:28:13.938Z,2.23
2022-08-03T20:30:42.510Z,2.33
2022-08-03T20:33:10.676Z,2.20
2022-08-03T20:35:41.891Z,2.43
2022-08-03T20:38:14.759Z,2.53
2022-08-03T20:40:42.962Z,2.30
2022-08-03T20:43:10.432Z,2.00
2022-08-03T20:45:59.187Z,2.70
2022-08-03T20:48:29.060Z,2.30
2022-08-03T20:50:56.542Z,2.20
2022-08-03T20:53:57.422Z,2.23
2022-08-03T20:56:14.717Z,2.10
2022-08-03T20:58:42.761Z,2.40
2022-08-03T21:01:27.758Z,2.13
2022-08-03T21:04:04.609Z,2.30
2022-08-03T21:06:37.440Z,2.20
2022-08-03T21:09:07.384Z,2.30
2022-08-03T21:11:41.842Z,2.30
2022-08-03T21:14:14.048Z,2.20
2022-08-03T21:16:44.519Z,2.23
2022-08-03T21:19:12.219Z,2.20
2022-08-03T21:21:39.921Z,2.10
2022-08-03T21:24:11.095Z,2.30
2022-08-03T21:26:39.467Z,2.20
2022-08-03T21:29:08.180Z,2.20
2022-08-03T21:31:35.956Z,2.50
2022-08-03T21:34:05.184Z,2.30
2022-08-03T21:36:33.604Z,2.20
2022-08-03T21:39:01.587Z,2.20
2022-08-03T21:41:32.650Z,2.13
2022-08-03T21:44:00.436Z,2.50
2022-08-03T21:46:28.379Z,2.20
2022-08-03T21:50:04.559Z,2.17
2022-08-03T21:51:44.580Z,2.17
2022-08-03T21:54:12.369Z,2.70
2022-08-03T21:56:43.315Z,2.40
2022-08-03T21:59:16.068Z,2.23
2022-08-03T22:01:45.751Z,2.13
2022-08-03T22:04:50.975Z,2.10
2022-08-03T22:07:05.929Z,2.30
2022-08-03T22:09:35.255Z,1.80
2022-08-03T22:12:04.810Z,2.60
2022-08-03T22:14:33.106Z,2.30
2022-08-03T22:17:03.413Z,2.10
2022-08-03T22:19:33.857Z,2.10
2022-08-03T22:22:04.503Z,2.00
2022-08-03T22:24:32.818Z,2.10
2022-08-03T22:27:19.258Z,2.30
2022-08-03T22:29:49.376Z,2.33
2022-08-03T22:32:16.801Z,2.00
2022-08-03T22:34:46.768Z,2.10
2022-08-03T22:37:16.387Z,2.13
2022-08-03T22:39:43.872Z,2.40
2022-08-03T22:42:11.700Z,2.10
2022-08-03T22:44:39.185Z,2.57
2022-08-03T22:47:08.169Z,2.30
2022-08-03T22:49:36.192Z,2.40
2022-08-03T22:52:03.987Z,2.00
2022-08-03T22:54:32.725Z,2.30
2022-08-03T22:57:00.193Z,2.40
2022-08-03T22:59:39.011Z,2.20
2022-08-03T23:02:21.350Z,2.23
2022-08-03T23:04:50.713Z,2.00
2022-08-03T23:07:20.825Z,2.20
2022-08-03T23:09:48.893Z,2.50
2022-08-03T23:12:19.696Z,2.33
2022-08-03T23:14:52.824Z,2.30
2022-08-03T23:17:24.493Z,2.30
2022-08-03T23:19:54.528Z,2.33
2022-08-03T23:22:30.150Z,2.20
2022-08-03T23:24:58.851Z,2.40
2022-08-03T23:27:27.585Z,2.37
2022-08-03T23:29:55.209Z,2.50
2022-08-03T23:32:24.892Z,2.70
2022-08-03T23:35:11.413Z,2.50
2022-08-03T23:38:10.813Z,2.23
2022-08-03T23:40:30.899Z,2.30
2022-08-03T23:42:58.924Z,2.50
2022-08-03T23:45:26.808Z,2.17
2022-08-03T23:47:55.667Z,2.20
2022-08-03T23:50:23.895Z,2.27
2022-08-03T23:52:56.733Z,2.40
2022-08-03T23:55:29.568Z,2.13
2022-08-03T23:58:04.123Z,2.30
